sensor_id;sensor_type;location;lat;lon;timestamp;P1;durP1;ratioP1;P2;durP2;ratioP2
58918;SDS011;44704;50.122;19.932;2023-03-04T06:18:26;49.50;;;17.70;;
58918;SDS011;44704;50.122;19.932;2023-03-04T06:20:55;55.00;;;19.30;;
58918;SDS011;44704;50.122;19.932;2023-03-04T06:23:26;53.20;;;20.60;;
58918;SDS011;44704;50.122;19.932;2023-03-04T06:25:55;46.50;;;19.60;;
58918;SDS011;44704;50.122;19.932;2023-03-04T06:28:24;49.10;;;19.70;;
58918;SDS011;44704;50.122;19.932;2023-03-04T06:30:51;55.40;;;21.60;;
58918;SDS011;44704;50.122;19.932;2023-03-04T06:33:19;52.20;;;20.50;;
58918;SDS011;44704;50.122;19.932;2023-03-04T06:35:46;47.80;;;20.20;;
58918;SDS011;44704;50.122;19.932;2023-03-04T06:38:14;52.10;;;20.20;;
58918;SDS011;44704;50.122;19.932;2023-03-04T06:40:41;56.90;;;22.40;;
58918;SDS011;44704;50.122;19.932;2023-03-04T06:43:08;55.30;;;21.60;;
58918;SDS011;44704;50.122;19.932;2023-03-04T06:45:37;54.00;;;21.20;;
58918;SDS011;44704;50.122;19.932;2023-03-04T06:48:05;59.00;;;23.30;;
58918;SDS011;44704;50.122;19.932;2023-03-04T06:50:32;58.40;;;23.30;;
58918;SDS011;44704;50.122;19.932;2023-03-04T06:52:59;56.70;;;23.30;;
58918;SDS011;44704;50.122;19.932;2023-03-04T06:55:26;57.80;;;22.50;;
58918;SDS011;44704;50.122;19.932;2023-03-04T06:57:53;53.40;;;20.70;;
58918;SDS011;44704;50.122;19.932;2023-03-04T07:00:20;65.10;;;24.30;;
58918;SDS011;44704;50.122;19.932;2023-03-04T07:02:49;60.40;;;23.20;;
58918;SDS011;44704;50.122;19.932;2023-03-04T07:05:17;49.30;;;20.70;;
58918;SDS011;44704;50.122;19.932;2023-03-04T07:07:45;64.50;;;26.30;;
58918;SDS011;44704;50.122;19.932;2023-03-04T07:10:12;57.40;;;24.00;;
58918;SDS011;44704;50.122;19.932;2023-03-04T07:12:39;56.70;;;23.80;;
58918;SDS011;44704;50.122;19.932;2023-03-04T07:15:06;60.00;;;22.70;;
58918;SDS011;44704;50.122;19.932;2023-03-04T07:17:33;60.00;;;24.00;;
58918;SDS011;44704;50.122;19.932;2023-03-04T07:20:00;58.40;;;24.10;;
58918;SDS011;44704;50.122;19.932;2023-03-04T07:22:27;59.00;;;23.80;;
58918;SDS011;44704;50.122;19.932;2023-03-04T07:24:54;60.10;;;25.10;;
58918;SDS011;44704;50.122;19.932;2023-03-04T07:27:22;66.70;;;26.80;;
58918;SDS011;44704;50.122;19.932;2023-03-04T07:29:50;59.90;;;23.50;;
58918;SDS011;44704;50.122;19.932;2023-03-04T07:32:17;59.00;;;23.40;;
58918;SDS011;44704;50.122;19.932;2023-03-04T07:34:44;63.40;;;22.70;;
58918;SDS011;44704;50.122;19.932;2023-03-04T07:37:11;59.60;;;22.50;;
58918;SDS011;44704;50.122;19.932;2023-03-04T07:39:38;57.80;;;23.80;;
58918;SDS011;44704;50.122;19.932;2023-03-04T07:42:05;59.10;;;23.50;;
58918;SDS011;44704;50.122;19.932;2023-03-04T07:44:34;55.80;;;21.70;;
58918;SDS011;44704;50.122;19.932;2023-03-04T07:47:01;58.90;;;23.40;;
58918;SDS011;44704;50.122;19.932;2023-03-04T07:49:28;65.80;;;25.40;;
58918;SDS011;44704;50.122;19.932;2023-03-04T07:51:56;59.30;;;23.40;;
58918;SDS011;44704;50.122;19.932;2023-03-04T07:54:23;53.40;;;23.00;;
58918;SDS011;44704;50.122;19.932;2023-03-04T07:56:50;53.20;;;23.30;;
58918;SDS011;44704;50.122;19.932;2023-03-04T07:59:19;57.10;;;23.20;;
58918;SDS011;44704;50.122;19.932;2023-03-04T08:01:46;65.20;;;23.80;;
58918;SDS011;44704;50.122;19.932;2023-03-04T08:04:14;52.80;;;19.90;;
58918;SDS011;44704;50.122;19.932;2023-03-04T08:06:41;68.80;;;27.00;;
58918;SDS011;44704;50.122;19.932;2023-03-04T08:09:09;54.90;;;22.00;;
58918;SDS011;44704;50.122;19.932;2023-03-04T08:11:39;59.50;;;24.40;;
58918;SDS011;44704;50.122;19.932;2023-03-04T08:14:07;62.90;;;24.30;;
58918;SDS011;44704;50.122;19.932;2023-03-04T08:16:36;59.20;;;23.20;;
58918;SDS011;44704;50.122;19.932;2023-03-04T08:19:04;50.20;;;19.60;;
58918;SDS011;44704;50.122;19.932;2023-03-04T08:21:31;59.60;;;24.00;;
58918;SDS011;44704;50.122;19.932;2023-03-04T08:24:00;47.80;;;21.00;;
58918;SDS011;44704;50.122;19.932;2023-03-04T08:26:34;47.90;;;21.10;;
58918;SDS011;44704;50.122;19.932;2023-03-04T08:29:07;50.20;;;21.00;;
58918;SDS011;44704;50.122;19.932;2023-03-04T08:31:36;49.00;;;21.20;;
58918;SDS011;44704;50.122;19.932;2023-03-04T08:34:07;52.00;;;21.60;;
58918;SDS011;44704;50.122;19.932;2023-03-04T08:36:36;57.10;;;23.20;;
58918;SDS011;44704;50.122;19.932;2023-03-04T08:39:03;54.70;;;22.00;;
58918;SDS011;44704;50.122;19.932;2023-03-04T08:41:31;51.00;;;22.10;;
58918;SDS011;44704;50.122;19.932;2023-03-04T08:43:59;55.30;;;22.70;;
58918;SDS011;44704;50.122;19.932;2023-03-04T08:46:26;55.50;;;22.50;;
58918;SDS011;44704;50.122;19.932;2023-03-04T08:48:54;51.30;;;23.30;;
58918;SDS011;44704;50.122;19.932;2023-03-04T08:51:22;52.50;;;21.70;;
58918;SDS011;44704;50.122;19.932;2023-03-04T08:53:49;47.30;;;22.00;;
58918;SDS011;44704;50.122;19.932;2023-03-04T08:56:16;49.50;;;21.80;;
58918;SDS011;44704;50.122;19.932;2023-03-04T08:58:43;50.00;;;22.00;;
58918;SDS011;44704;50.122;19.932;2023-03-04T09:01:10;52.60;;;23.30;;
58918;SDS011;44704;50.122;19.932;2023-03-04T09:03:39;48.50;;;21.40;;
58918;SDS011;44704;50.122;19.932;2023-03-04T09:06:07;54.40;;;21.70;;
58918;SDS011;44704;50.122;19.932;2023-03-04T09:08:36;48.70;;;21.80;;
58918;SDS011;44704;50.122;19.932;2023-03-04T09:11:03;46.90;;;21.40;;
58918;SDS011;44704;50.122;19.932;2023-03-04T09:13:30;44.80;;;20.90;;
58918;SDS011;44704;50.122;19.932;2023-03-04T09:15:57;44.20;;;22.30;;
58918;SDS011;44704;50.122;19.932;2023-03-04T09:18:25;49.00;;;23.20;;
58918;SDS011;44704;50.122;19.932;2023-03-04T09:20:52;43.60;;;22.50;;
58918;SDS011;44704;50.122;19.932;2023-03-04T09:23:20;45.30;;;21.50;;
58918;SDS011;44704;50.122;19.932;2023-03-04T09:25:47;43.90;;;22.30;;
58918;SDS011;44704;50.122;19.932;2023-03-04T09:28:15;42.40;;;20.40;;
58918;SDS011;44704;50.122;19.932;2023-03-04T09:30:44;44.90;;;21.50;;
58918;SDS011;44704;50.122;19.932;2023-03-04T09:33:11;45.40;;;22.70;;
58918;SDS011;44704;50.122;19.932;2023-03-04T09:35:38;48.60;;;21.40;;
58918;SDS011;44704;50.122;19.932;2023-03-04T09:38:06;42.50;;;20.20;;
58918;SDS011;44704;50.122;19.932;2023-03-04T09:40:41;41.70;;;19.70;;
58918;SDS011;44704;50.122;19.932;2023-03-04T09:43:24;42.30;;;19.70;;
58918;SDS011;44704;50.122;19.932;2023-03-04T09:45:56;41.20;;;19.30;;
58918;SDS011;44704;50.122;19.932;2023-03-04T09:48:27;39.70;;;19.60;;
58918;SDS011;44704;50.122;19.932;2023-03-04T09:56:34;42.00;;;18.50;;
58918;SDS011;44704;50.122;19.932;2023-03-04T09:59:15;38.60;;;18.10;;
58918;SDS011;44704;50.122;19.932;2023-03-04T10:01:54;37.20;;;17.10;;
58918;SDS011;44704;50.122;19.932;2023-03-04T10:04:31;36.80;;;16.10;;
58918;SDS011;44704;50.122;19.932;2023-03-04T10:07:02;35.90;;;17.60;;
58918;SDS011;44704;50.122;19.932;2023-03-04T10:12:17;37.40;;;17.50;;
58918;SDS011;44704;50.122;19.932;2023-03-04T10:14:48;36.40;;;17.70;;
58918;SDS011;44704;50.122;19.932;2023-03-04T10:17:33;38.60;;;17.40;;
58918;SDS011;44704;50.122;19.932;2023-03-04T10:22:45;37.30;;;18.10;;
58918;SDS011;44704;50.122;19.932;2023-03-04T10:27:50;41.60;;;20.00;;
58918;SDS011;44704;50.122;19.932;2023-03-04T10:30:20;35.00;;;18.40;;
58918;SDS011;44704;50.122;19.932;2023-03-04T10:33:24;44.30;;;20.30;;
58918;SDS011;44704;50.122;19.932;2023-03-04T10:38:32;41.20;;;20.40;;
58918;SDS011;44704;50.122;19.932;2023-03-04T10:41:10;37.80;;;17.70;;
58918;SDS011;44704;50.122;19.932;2023-03-04T10:43:42;39.20;;;20.30;;
58918;SDS011;44704;50.122;19.932;2023-03-04T10:46:16;44.40;;;20.50;;
58918;SDS011;44704;50.122;19.932;2023-03-04T10:48:43;43.20;;;21.40;;
58918;SDS011;44704;50.122;19.932;2023-03-04T10:53:40;40.70;;;21.90;;
58918;SDS011;44704;50.122;19.932;2023-03-04T11:04:40;41.50;;;21.40;;
58918;SDS011;44704;50.122;19.932;2023-03-04T11:07:08;44.10;;;20.90;;
58918;SDS011;44704;50.122;19.932;2023-03-04T11:09:37;42.60;;;20.20;;
58918;SDS011;44704;50.122;19.932;2023-03-04T11:12:10;42.30;;;21.30;;
58918;SDS011;44704;50.122;19.932;2023-03-04T11:14:40;45.80;;;20.90;;
58918;SDS011;44704;50.122;19.932;2023-03-04T11:17:16;46.40;;;22.70;;
58918;SDS011;44704;50.122;19.932;2023-03-04T11:19:44;55.40;;;24.90;;
58918;SDS011;44704;50.122;19.932;2023-03-04T11:22:15;54.20;;;25.10;;
58918;SDS011;44704;50.122;19.932;2023-03-04T11:24:46;67.40;;;29.90;;
58918;SDS011;44704;50.122;19.932;2023-03-04T11:27:29;66.40;;;28.20;;
58918;SDS011;44704;50.122;19.932;2023-03-04T11:32:50;62.70;;;28.20;;
58918;SDS011;44704;50.122;19.932;2023-03-04T11:35:23;67.60;;;27.40;;
58918;SDS011;44704;50.122;19.932;2023-03-04T11:40:43;58.70;;;26.40;;
58918;SDS011;44704;50.122;19.932;2023-03-04T11:51:17;66.30;;;28.30;;
58918;SDS011;44704;50.122;19.932;2023-03-04T11:56:33;63.40;;;27.00;;
58918;SDS011;44704;50.122;19.932;2023-03-04T12:02:17;69.90;;;27.50;;
58918;SDS011;44704;50.122;19.932;2023-03-04T12:13:52;68.40;;;28.20;;
58918;SDS011;44704;50.122;19.932;2023-03-04T12:24:49;70.90;;;30.50;;
58918;SDS011;44704;50.122;19.932;2023-03-04T12:41:56;61.40;;;26.60;;
58918;SDS011;44704;50.122;19.932;2023-03-04T12:53:10;68.60;;;28.10;;
58918;SDS011;44704;50.122;19.932;2023-03-04T12:55:41;62.00;;;28.40;;
58918;SDS011;44704;50.122;19.932;2023-03-04T12:58:14;59.70;;;27.50;;
58918;SDS011;44704;50.122;19.932;2023-03-04T13:03:20;60.90;;;25.00;;
58918;SDS011;44704;50.122;19.932;2023-03-04T13:06:03;62.20;;;27.70;;
58918;SDS011;44704;50.122;19.932;2023-03-04T13:08:52;65.20;;;28.70;;
58918;SDS011;44704;50.122;19.932;2023-03-04T13:14:02;68.80;;;30.50;;
58918;SDS011;44704;50.122;19.932;2023-03-04T13:16:31;57.50;;;26.90;;
58918;SDS011;44704;50.122;19.932;2023-03-04T13:18:59;58.10;;;25.30;;
58918;SDS011;44704;50.122;19.932;2023-03-04T13:21:29;57.00;;;25.50;;
58918;SDS011;44704;50.122;19.932;2023-03-04T13:24:00;59.00;;;25.10;;
58918;SDS011;44704;50.122;19.932;2023-03-04T13:40:44;53.30;;;24.80;;
58918;SDS011;44704;50.122;19.932;2023-03-04T13:43:51;56.50;;;24.70;;
58918;SDS011;44704;50.122;19.932;2023-03-04T13:51:29;49.20;;;22.40;;
58918;SDS011;44704;50.122;19.932;2023-03-04T13:56:35;50.90;;;23.50;;
58918;SDS011;44704;50.122;19.932;2023-03-04T14:02:11;54.20;;;23.40;;
58918;SDS011;44704;50.122;19.932;2023-03-04T14:04:42;44.00;;;21.60;;
58918;SDS011;44704;50.122;19.932;2023-03-04T14:07:19;46.70;;;21.50;;
58918;SDS011;44704;50.122;19.932;2023-03-04T14:15:24;46.80;;;22.10;;
58918;SDS011;44704;50.122;19.932;2023-03-04T14:17:57;45.50;;;20.10;;
58918;SDS011;44704;50.122;19.932;2023-03-04T14:20:36;43.80;;;20.20;;
58918;SDS011;44704;50.122;19.932;2023-03-04T14:23:26;46.70;;;21.40;;
58918;SDS011;44704;50.122;19.932;2023-03-04T14:26:05;45.30;;;21.20;;
58918;SDS011;44704;50.122;19.932;2023-03-04T14:28:43;48.10;;;21.60;;
58918;SDS011;44704;50.122;19.932;2023-03-04T14:31:21;40.60;;;18.30;;
58918;SDS011;44704;50.122;19.932;2023-03-04T14:33:53;39.30;;;19.80;;
58918;SDS011;44704;50.122;19.932;2023-03-04T14:36:25;51.50;;;23.50;;
58918;SDS011;44704;50.122;19.932;2023-03-04T14:38:56;48.90;;;22.20;;
58918;SDS011;44704;50.122;19.932;2023-03-04T14:41:27;45.10;;;22.10;;
58918;SDS011;44704;50.122;19.932;2023-03-04T14:46:31;46.20;;;21.70;;
58918;SDS011;44704;50.122;19.932;2023-03-04T14:49:02;47.90;;;22.50;;
58918;SDS011;44704;50.122;19.932;2023-03-04T14:51:37;51.00;;;24.30;;
58918;SDS011;44704;50.122;19.932;2023-03-04T14:54:27;58.80;;;26.80;;
58918;SDS011;44704;50.122;19.932;2023-03-04T14:56:54;49.20;;;22.20;;
58918;SDS011;44704;50.122;19.932;2023-03-04T14:59:32;48.20;;;24.10;;
58918;SDS011;44704;50.122;19.932;2023-03-04T15:02:36;48.80;;;21.50;;
58918;SDS011;44704;50.122;19.932;2023-03-04T15:05:00;50.20;;;23.20;;
58918;SDS011;44704;50.122;19.932;2023-03-04T15:07:34;54.00;;;23.40;;
58918;SDS011;44704;50.122;19.932;2023-03-04T15:10:05;56.20;;;25.20;;
58918;SDS011;44704;50.122;19.932;2023-03-04T15:12:36;57.30;;;24.00;;
58918;SDS011;44704;50.122;19.932;2023-03-04T15:15:30;48.50;;;23.70;;
58918;SDS011;44704;50.122;19.932;2023-03-04T15:18:01;50.00;;;22.60;;
58918;SDS011;44704;50.122;19.932;2023-03-04T15:20:56;44.80;;;19.70;;
58918;SDS011;44704;50.122;19.932;2023-03-04T15:23:32;52.80;;;22.40;;
58918;SDS011;44704;50.122;19.932;2023-03-04T15:26:00;54.40;;;25.00;;
58918;SDS011;44704;50.122;19.932;2023-03-04T15:28:34;51.00;;;24.30;;
58918;SDS011;44704;50.122;19.932;2023-03-04T15:31:03;52.60;;;25.40;;
58918;SDS011;44704;50.122;19.932;2023-03-04T15:33:31;45.40;;;21.30;;
58918;SDS011;44704;50.122;19.932;2023-03-04T15:35:59;53.40;;;25.90;;
58918;SDS011;44704;50.122;19.932;2023-03-04T15:41:26;50.70;;;25.00;;
58918;SDS011;44704;50.122;19.932;2023-03-04T15:43:53;50.40;;;25.00;;
58918;SDS011;44704;50.122;19.932;2023-03-04T15:46:20;47.30;;;23.30;;
58918;SDS011;44704;50.122;19.932;2023-03-04T15:48:48;48.00;;;23.90;;
58918;SDS011;44704;50.122;19.932;2023-03-04T15:51:19;49.10;;;24.00;;
58918;SDS011;44704;50.122;19.932;2023-03-04T15:53:51;48.00;;;23.40;;
58918;SDS011;44704;50.122;19.932;2023-03-04T15:56:25;44.70;;;21.40;;
58918;SDS011;44704;50.122;19.932;2023-03-04T15:58:55;50.00;;;22.20;;
58918;SDS011;44704;50.122;19.932;2023-03-04T16:01:26;44.60;;;20.40;;
58918;SDS011;44704;50.122;19.932;2023-03-04T16:03:53;42.30;;;20.20;;
58918;SDS011;44704;50.122;19.932;2023-03-04T16:06:20;39.90;;;19.60;;
58918;SDS011;44704;50.122;19.932;2023-03-04T16:08:50;42.90;;;20.00;;
58918;SDS011;44704;50.122;19.932;2023-03-04T16:11:22;37.50;;;18.10;;
58918;SDS011;44704;50.122;19.932;2023-03-04T16:13:51;34.60;;;18.10;;
58918;SDS011;44704;50.122;19.932;2023-03-04T16:16:18;34.10;;;16.50;;
58918;SDS011;44704;50.122;19.932;2023-03-04T16:18:45;35.90;;;16.90;;
58918;SDS011;44704;50.122;19.932;2023-03-04T16:21:13;37.10;;;18.50;;
58918;SDS011;44704;50.122;19.932;2023-03-04T16:23:44;37.30;;;17.00;;
58918;SDS011;44704;50.122;19.932;2023-03-04T16:26:14;36.30;;;16.50;;
58918;SDS011;44704;50.122;19.932;2023-03-04T16:28:44;32.30;;;16.90;;
58918;SDS011;44704;50.122;19.932;2023-03-04T16:31:12;32.70;;;15.50;;
58918;SDS011;44704;50.122;19.932;2023-03-04T16:33:40;39.90;;;16.90;;
